createdAt,value
2018-09-25T00:01:23.671Z,10.40
2018-09-25T00:03:57.290Z,10.30
2018-09-25T00:06:30.847Z,10.20
2018-09-25T00:09:04.475Z,10.20
2018-09-25T00:11:38.125Z,10.30
2018-09-25T00:14:12.056Z,10.30
2018-09-25T00:16:45.784Z,10.30
2018-09-25T00:19:20.393Z,10.30
2018-09-25T00:21:54.019Z,10.30
2018-09-25T00:24:27.572Z,10.30
2018-09-25T00:27:01.325Z,10.20
2018-09-25T00:29:35.407Z,10.20
2018-09-25T00:32:09.008Z,10.10
2018-09-25T00:34:43.491Z,10.00
2018-09-25T00:37:17.271Z,10.00
2018-09-25T00:39:50.934Z,10.00
2018-09-25T00:42:24.727Z,10.00
2018-09-25T00:44:58.533Z,10.00
2018-09-25T00:47:32.263Z,10.00
2018-09-25T00:50:06.027Z,9.90
2018-09-25T00:52:39.660Z,9.80
2018-09-25T00:55:13.368Z,9.80
2018-09-25T00:57:46.907Z,9.70
2018-09-25T01:00:20.684Z,9.70
2018-09-25T01:02:54.884Z,9.70
2018-09-25T01:05:28.601Z,9.80
2018-09-25T01:08:02.448Z,9.60
2018-09-25T01:10:36.253Z,9.60
2018-09-25T01:13:09.981Z,9.50
2018-09-25T01:15:43.750Z,9.50
2018-09-25T01:18:17.580Z,9.50
2018-09-25T01:20:51.212Z,9.40
2018-09-25T01:23:24.809Z,9.40
2018-09-25T01:25:58.557Z,9.40
2018-09-25T01:28:32.190Z,9.40
2018-09-25T01:31:05.841Z,9.30
2018-09-25T01:33:39.655Z,9.30
2018-09-25T01:36:13.450Z,9.20
2018-09-25T01:38:47.307Z,9.20
2018-09-25T01:41:20.941Z,9.20
2018-09-25T01:43:54.682Z,9.30
2018-09-25T01:46:28.216Z,9.30
2018-09-25T01:49:01.908Z,9.30
2018-09-25T01:51:35.583Z,9.30
2018-09-25T01:54:09.300Z,9.30
2018-09-25T01:56:42.822Z,9.20
2018-09-25T01:59:16.613Z,9.20
2018-09-25T02:01:50.267Z,9.00
2018-09-25T02:04:24.000Z,9.10
2018-09-25T02:06:57.663Z,8.90
2018-09-25T02:09:31.525Z,9.00
2018-09-25T02:12:05.176Z,9.00
2018-09-25T02:14:38.829Z,8.90
2018-09-25T02:17:12.424Z,9.00
2018-09-25T02:19:46.028Z,8.90
2018-09-25T02:22:19.660Z,9.00
2018-09-25T02:24:53.188Z,8.80
2018-09-25T02:27:26.779Z,8.80
2018-09-25T02:30:00.404Z,8.90
2018-09-25T02:32:33.978Z,8.80
2018-09-25T02:35:08.903Z,8.80
2018-09-25T02:37:42.717Z,8.80
2018-09-25T02:40:16.186Z,8.90
2018-09-25T02:42:50.083Z,8.80
2018-09-25T02:45:23.724Z,8.80
2018-09-25T02:47:57.508Z,8.70
2018-09-25T02:50:30.931Z,8.70
2018-09-25T02:53:04.520Z,8.70
2018-09-25T02:55:38.115Z,8.60
2018-09-25T02:58:11.882Z,8.60
2018-09-25T03:00:45.532Z,8.50
2018-09-25T03:03:19.283Z,8.50
2018-09-25T03:05:52.903Z,8.50
2018-09-25T03:08:26.615Z,8.50
2018-09-25T03:11:00.015Z,8.60
2018-09-25T03:13:33.640Z,8.60
2018-09-25T03:16:07.304Z,8.60
2018-09-25T03:18:41.079Z,8.60
2018-09-25T03:21:14.815Z,8.30
2018-09-25T03:23:48.621Z,8.40
2018-09-25T03:26:22.256Z,8.50
2018-09-25T03:28:55.970Z,8.60
2018-09-25T03:31:29.465Z,8.50
2018-09-25T03:34:03.201Z,8.30
2018-09-25T03:36:36.902Z,8.20
2018-09-25T03:39:12.586Z,8.10
2018-09-25T03:41:46.535Z,8.20
2018-09-25T03:44:20.359Z,8.20
2018-09-25T03:46:54.092Z,8.20
2018-09-25T03:49:27.837Z,8.10
2018-09-25T03:52:01.434Z,8.00
2018-09-25T03:54:35.065Z,8.00
2018-09-25T03:57:08.730Z,8.00
2018-09-25T03:59:42.480Z,7.80
2018-09-25T04:02:16.163Z,7.50
2018-09-25T04:04:49.859Z,7.50
2018-09-25T04:07:23.575Z,7.30
2018-09-25T04:09:57.314Z,7.40
2018-09-25T04:12:30.998Z,7.40
2018-09-25T04:15:04.700Z,7.40
2018-09-25T04:17:38.418Z,7.40
2018-09-25T04:20:12.108Z,7.40
2018-09-25T04:22:45.665Z,7.30
2018-09-25T04:25:19.272Z,7.30
2018-09-25T04:27:53.021Z,7.30
2018-09-25T04:30:26.666Z,7.40
2018-09-25T04:33:00.402Z,7.50
2018-09-25T04:35:34.083Z,7.60
2018-09-25T04:38:07.781Z,7.70
2018-09-25T04:40:41.483Z,7.70
2018-09-25T04:43:15.192Z,7.70
2018-09-25T04:45:49.039Z,7.80
2018-09-25T04:48:22.718Z,7.70
2018-09-25T04:50:56.287Z,7.70
2018-09-25T04:53:29.921Z,7.80
2018-09-25T04:56:03.629Z,7.80
2018-09-25T04:58:37.299Z,7.60
2018-09-25T05:01:11.329Z,7.50
2018-09-25T05:03:45.135Z,7.30
2018-09-25T05:06:18.818Z,7.30
2018-09-25T05:08:53.394Z,7.20
2018-09-25T05:11:26.863Z,7.20
2018-09-25T05:14:01.495Z,7.10
2018-09-25T05:16:35.348Z,7.00
2018-09-25T05:19:09.136Z,6.90
2018-09-25T05:21:42.771Z,7.10
2018-09-25T05:24:16.412Z,7.00
2018-09-25T05:26:50.028Z,7.10
2018-09-25T05:29:23.603Z,7.10
2018-09-25T05:31:57.320Z,7.20
2018-09-25T05:34:31.030Z,7.20
2018-09-25T05:37:04.822Z,7.10
2018-09-25T05:39:38.417Z,7.10
2018-09-25T05:42:12.285Z,7.10
2018-09-25T05:44:45.977Z,7.00
2018-09-25T05:47:19.593Z,7.00
2018-09-25T05:49:53.278Z,7.00
2018-09-25T05:52:26.898Z,7.10
2018-09-25T05:55:00.543Z,7.00
2018-09-25T05:57:34.951Z,7.00
2018-09-25T06:00:08.539Z,7.00
2018-09-25T06:02:45.524Z,7.00
2018-09-25T06:05:19.165Z,7.20
2018-09-25T06:07:52.813Z,7.20
2018-09-25T06:10:26.271Z,7.40
2018-09-25T06:12:59.855Z,7.50
2018-09-25T06:15:33.565Z,7.70
2018-09-25T06:18:07.240Z,7.90
2018-09-25T06:20:40.847Z,8.20
2018-09-25T06:23:14.501Z,8.40
2018-09-25T06:25:48.376Z,8.40
2018-09-25T06:28:22.050Z,8.60
2018-09-25T06:30:55.634Z,8.60
2018-09-25T06:33:29.971Z,8.90
2018-09-25T06:36:03.534Z,9.00
2018-09-25T06:38:37.253Z,9.10
2018-09-25T06:41:10.856Z,9.30
2018-09-25T06:43:44.630Z,9.80
2018-09-25T06:46:18.389Z,9.80
2018-09-25T06:48:51.935Z,10.00
2018-09-25T06:51:25.650Z,10.50
2018-09-25T06:53:59.269Z,10.50
2018-09-25T06:56:33.019Z,10.50
2018-09-25T06:59:06.811Z,10.70
2018-09-25T07:01:40.473Z,10.90
2018-09-25T07:04:15.277Z,10.90
2018-09-25T07:06:48.773Z,11.30
2018-09-25T07:09:22.519Z,11.60
2018-09-25T07:11:56.327Z,11.60
2018-09-25T07:14:29.932Z,12.10
2018-09-25T07:17:03.713Z,12.40
2018-09-25T07:19:37.222Z,12.60
2018-09-25T07:22:10.948Z,12.50
2018-09-25T07:24:44.774Z,12.70
2018-09-25T07:27:18.353Z,12.70
2018-09-25T07:29:51.997Z,13.10
2018-09-25T07:32:25.759Z,13.60
2018-09-25T07:34:59.471Z,14.10
2018-09-25T07:37:33.068Z,13.80
2018-09-25T07:40:06.842Z,13.80
2018-09-25T07:42:40.533Z,14.10
2018-09-25T07:45:14.228Z,14.40
2018-09-25T07:47:47.716Z,15.00
2018-09-25T07:50:21.311Z,15.20
2018-09-25T07:52:55.075Z,15.50
2018-09-25T07:55:29.553Z,16.20
2018-09-25T07:58:03.271Z,16.20
2018-09-25T08:00:36.875Z,16.50
2018-09-25T08:03:10.697Z,16.90
2018-09-25T08:05:44.319Z,17.40
2018-09-25T08:08:17.990Z,17.70
2018-09-25T08:10:51.960Z,17.80
2018-09-25T08:13:25.600Z,18.10
2018-09-25T08:15:59.319Z,18.40
2018-09-25T08:18:33.086Z,18.50
2018-09-25T08:21:07.247Z,19.00
2018-09-25T08:23:40.963Z,19.60
2018-09-25T08:26:14.750Z,19.60
2018-09-25T08:28:48.474Z,19.80
2018-09-25T08:31:22.269Z,20.40
2018-09-25T08:33:56.509Z,20.80
2018-09-25T08:36:30.179Z,20.90
2018-09-25T08:39:04.064Z,20.30
2018-09-25T08:41:37.610Z,20.20
2018-09-25T08:44:11.261Z,20.80
2018-09-25T08:46:44.814Z,21.40
2018-09-25T08:49:18.453Z,22.10
2018-09-25T08:51:52.260Z,22.20
2018-09-25T08:54:26.016Z,22.10
2018-09-25T08:56:59.710Z,22.80
2018-09-25T08:59:33.386Z,22.80
2018-09-25T09:02:07.004Z,23.60
2018-09-25T09:04:40.723Z,23.50
2018-09-25T09:07:14.498Z,23.50
2018-09-25T09:09:48.248Z,23.40
2018-09-25T09:12:22.038Z,23.90
2018-09-25T09:14:55.611Z,23.30
2018-09-25T09:17:29.323Z,23.30
2018-09-25T09:20:03.235Z,24.00
2018-09-25T09:22:36.780Z,24.70
2018-09-25T09:25:10.587Z,25.10
2018-09-25T09:27:44.171Z,25.00
2018-09-25T09:30:17.751Z,24.90
2018-09-25T09:35:25.152Z,25.60
2018-09-25T09:37:58.851Z,25.80
2018-09-25T09:40:32.528Z,25.40
2018-09-25T09:43:06.319Z,25.60
2018-09-25T09:45:40.059Z,24.60
2018-09-25T09:48:13.844Z,24.30
2018-09-25T09:50:47.578Z,24.20
2018-09-25T09:53:21.351Z,24.70
2018-09-25T09:55:55.114Z,25.30
2018-09-25T09:58:28.934Z,24.10
2018-09-25T10:01:02.689Z,24.90
2018-09-25T10:03:36.205Z,25.40
2018-09-25T10:06:09.903Z,26.50
2018-09-25T10:08:43.524Z,26.70
2018-09-25T10:11:17.141Z,26.90
2018-09-25T10:13:50.683Z,27.00
2018-09-25T10:16:24.390Z,27.40
2018-09-25T10:18:58.197Z,28.20
2018-09-25T10:21:31.766Z,28.30
2018-09-25T10:24:05.394Z,27.70
2018-09-25T10:26:39.060Z,27.60
2018-09-25T10:29:12.695Z,28.10
2018-09-25T10:31:46.393Z,27.90
2018-09-25T10:34:20.151Z,28.90
2018-09-25T10:36:53.785Z,28.50
2018-09-25T10:39:27.408Z,27.30
2018-09-25T10:42:01.006Z,28.10
2018-09-25T10:44:34.732Z,28.90
2018-09-25T10:47:08.432Z,29.10
2018-09-25T10:49:42.223Z,29.20
2018-09-25T10:52:15.924Z,28.10
2018-09-25T10:54:49.716Z,28.00
2018-09-25T10:57:23.278Z,28.80
2018-09-25T10:59:56.921Z,28.50
2018-09-25T11:02:30.538Z,29.50
2018-09-25T11:05:04.232Z,28.10
2018-09-25T11:07:38.066Z,25.00
2018-09-25T11:10:11.894Z,23.00
2018-09-25T11:12:45.524Z,21.60
2018-09-25T11:15:19.062Z,22.70
2018-09-25T11:17:52.797Z,24.70
2018-09-25T11:20:26.393Z,23.60
2018-09-25T11:23:00.004Z,23.10
2018-09-25T11:25:33.524Z,22.20
2018-09-25T11:28:07.308Z,21.90
2018-09-25T11:30:40.937Z,21.60
2018-09-25T11:33:14.541Z,21.30
2018-09-25T11:35:48.122Z,21.10
2018-09-25T11:38:21.750Z,20.90
2018-09-25T11:40:55.390Z,20.10
2018-09-25T11:43:29.154Z,22.20
2018-09-25T11:46:05.007Z,22.50
2018-09-25T11:48:38.615Z,22.80
2018-09-25T11:51:12.427Z,24.30
2018-09-25T11:53:46.121Z,25.70
2018-09-25T11:56:19.904Z,27.30
2018-09-25T11:58:53.505Z,28.10
2018-09-25T12:01:27.348Z,28.80
2018-09-25T12:04:01.091Z,27.30
2018-09-25T12:06:34.795Z,27.10
2018-09-25T12:09:08.412Z,27.90
2018-09-25T12:11:42.086Z,28.00
2018-09-25T12:14:15.981Z,27.60
2018-09-25T12:16:49.697Z,25.80
2018-09-25T12:19:23.382Z,24.70
2018-09-25T12:21:57.085Z,25.80
2018-09-25T12:24:30.909Z,26.30
2018-09-25T12:27:04.561Z,26.00
2018-09-25T12:29:38.372Z,24.20
2018-09-25T12:32:12.070Z,25.50
2018-09-25T12:34:45.536Z,24.60
2018-09-25T12:37:19.286Z,24.50
2018-09-25T12:39:52.924Z,23.80
2018-09-25T12:42:26.652Z,23.40
2018-09-25T12:45:00.417Z,23.10
2018-09-25T12:47:34.220Z,23.00
2018-09-25T12:50:08.001Z,22.10
2018-09-25T12:52:41.720Z,21.70
2018-09-25T12:55:15.310Z,21.40
2018-09-25T12:57:48.960Z,21.80
2018-09-25T13:00:22.482Z,23.10
2018-09-25T13:02:55.937Z,24.00
2018-09-25T13:05:29.598Z,24.30
2018-09-25T13:08:03.199Z,25.20
2018-09-25T13:10:36.917Z,26.10
2018-09-25T13:13:10.656Z,25.80
2018-09-25T13:15:44.303Z,25.00
2018-09-25T13:18:18.021Z,25.70
2018-09-25T13:20:51.720Z,26.00
2018-09-25T13:23:25.482Z,25.20
2018-09-25T13:25:59.095Z,25.00
2018-09-25T13:28:32.641Z,24.10
2018-09-25T13:31:06.211Z,24.20
2018-09-25T13:33:39.652Z,24.00
2018-09-25T13:36:13.225Z,24.00
2018-09-25T13:38:47.016Z,23.90
2018-09-25T13:41:20.746Z,23.00
2018-09-25T13:43:54.496Z,22.40
2018-09-25T13:46:28.211Z,21.70
2018-09-25T13:49:01.817Z,21.90
2018-09-25T13:51:35.374Z,22.10
2018-09-25T13:54:08.945Z,22.70
2018-09-25T13:56:42.537Z,22.70
2018-09-25T13:59:16.138Z,22.40
2018-09-25T14:01:49.840Z,22.60
2018-09-25T14:04:23.457Z,22.30
2018-09-25T14:06:57.172Z,22.30
2018-09-25T14:09:30.974Z,21.90
2018-09-25T14:12:04.636Z,21.90
2018-09-25T14:14:38.478Z,21.80
2018-09-25T14:17:12.145Z,21.70
2018-09-25T14:19:45.897Z,21.60
2018-09-25T14:22:19.548Z,21.60
2018-09-25T14:24:53.180Z,21.50
2018-09-25T14:27:26.889Z,21.40
2018-09-25T14:30:00.483Z,21.20
2018-09-25T14:32:34.425Z,21.20
2018-09-25T14:35:08.170Z,21.10
2018-09-25T14:37:43.029Z,21.00
2018-09-25T14:40:16.837Z,21.10
2018-09-25T14:42:50.478Z,21.40
2018-09-25T14:45:24.161Z,21.20
2018-09-25T14:47:57.948Z,21.20
2018-09-25T14:50:31.751Z,20.80
2018-09-25T14:53:05.591Z,20.60
2018-09-25T14:55:39.368Z,20.50
2018-09-25T14:58:12.932Z,20.50
2018-09-25T15:00:47.927Z,20.40
2018-09-25T15:03:21.589Z,20.50
2018-09-25T15:05:55.316Z,20.20
2018-09-25T15:08:28.736Z,20.10
2018-09-25T15:11:02.508Z,20.10
2018-09-25T15:13:36.245Z,20.00
2018-09-25T15:16:09.891Z,20.00
2018-09-25T15:18:43.652Z,19.50
2018-09-25T15:21:17.326Z,19.50
2018-09-25T15:23:50.949Z,19.30
2018-09-25T15:26:24.580Z,19.50
2018-09-25T15:28:59.001Z,19.50
2018-09-25T15:31:32.640Z,19.50
2018-09-25T15:34:06.224Z,19.60
2018-09-25T15:36:39.945Z,19.40
2018-09-25T15:39:14.315Z,19.10
2018-09-25T15:41:48.149Z,19.10
2018-09-25T15:44:21.869Z,19.20
2018-09-25T15:46:55.671Z,19.30
2018-09-25T15:49:29.348Z,19.30
2018-09-25T15:52:02.952Z,19.20
2018-09-25T15:54:36.638Z,18.90
2018-09-25T15:57:10.254Z,18.50
2018-09-25T15:59:43.890Z,18.40
2018-09-25T16:02:17.388Z,18.50
2018-09-25T16:04:51.111Z,18.70
2018-09-25T16:07:24.875Z,18.60
2018-09-25T16:09:58.419Z,18.40
2018-09-25T16:12:31.892Z,18.40
2018-09-25T16:15:05.591Z,18.40
2018-09-25T16:17:39.134Z,18.50
2018-09-25T16:20:12.844Z,18.50
2018-09-25T16:22:46.426Z,18.60
2018-09-25T16:25:20.205Z,18.50
2018-09-25T16:27:53.763Z,18.50
2018-09-25T16:30:27.373Z,18.50
2018-09-25T16:33:00.979Z,18.50
2018-09-25T16:35:34.602Z,18.40
2018-09-25T16:38:08.330Z,18.30
2018-09-25T16:40:42.134Z,18.30
2018-09-25T16:43:15.889Z,18.30
2018-09-25T16:45:49.578Z,18.20
2018-09-25T16:48:23.321Z,18.20
2018-09-25T16:50:57.127Z,18.10
2018-09-25T16:53:30.779Z,18.10
2018-09-25T16:56:04.536Z,17.90
2018-09-25T16:58:38.311Z,17.90
2018-09-25T17:01:12.046Z,17.80
2018-09-25T17:03:48.362Z,17.80
2018-09-25T17:06:22.883Z,17.80
2018-09-25T17:08:57.201Z,17.70
2018-09-25T17:14:12.570Z,17.40
2018-09-25T17:16:47.117Z,17.30
2018-09-25T17:19:21.443Z,17.10
2018-09-25T17:22:00.988Z,17.00
2018-09-25T17:24:35.714Z,16.80
2018-09-25T17:27:10.478Z,16.80
2018-09-25T17:29:44.763Z,16.60
2018-09-25T17:32:19.285Z,16.50
2018-09-25T17:37:39.197Z,16.40
2018-09-25T17:40:13.701Z,16.30
2018-09-25T17:42:48.747Z,16.20
2018-09-25T17:45:23.982Z,16.10
2018-09-25T17:47:57.705Z,16.00
2018-09-25T17:50:31.519Z,15.90
2018-09-25T17:53:05.143Z,15.70
2018-09-25T17:55:38.823Z,15.60
2018-09-25T17:58:12.645Z,15.50
2018-09-25T18:00:46.516Z,15.30
2018-09-25T18:03:20.129Z,15.20
2018-09-25T18:05:53.930Z,15.10
2018-09-25T18:08:27.742Z,15.10
2018-09-25T18:11:01.688Z,14.90
2018-09-25T18:13:35.417Z,14.80
2018-09-25T18:16:09.161Z,14.80
2018-09-25T18:18:42.877Z,14.60
2018-09-25T18:21:16.491Z,14.60
2018-09-25T18:23:50.134Z,14.50
2018-09-25T18:26:24.613Z,14.50
2018-09-25T18:28:58.204Z,14.50
2018-09-25T18:31:31.870Z,14.40
2018-09-25T18:34:25.333Z,14.40
2018-09-25T18:36:59.992Z,14.30
2018-09-25T18:39:34.329Z,14.20
2018-09-25T18:42:08.649Z,14.20
2018-09-25T18:44:43.528Z,14.20
2018-09-25T18:51:07.172Z,14.10
2018-09-25T18:53:43.741Z,13.90
2018-09-25T18:56:44.478Z,13.90
2018-09-25T19:02:03.251Z,13.80
2018-09-25T19:04:37.622Z,13.90
2018-09-25T19:07:11.792Z,13.90
2018-09-25T19:09:46.821Z,13.80
2018-09-25T19:12:21.902Z,13.70
2018-09-25T19:17:54.412Z,13.60
2018-09-25T19:23:16.790Z,13.60
2018-09-25T19:25:56.635Z,13.60
2018-09-25T19:31:13.811Z,13.30
2018-09-25T19:33:47.801Z,13.30
2018-09-25T19:36:22.276Z,13.20
2018-09-25T19:38:56.177Z,13.10
2018-09-25T19:41:30.928Z,13.00
2018-09-25T19:44:05.352Z,12.80
2018-09-25T19:46:39.310Z,13.00
2018-09-25T19:49:13.806Z,13.10
2018-09-25T19:51:54.337Z,13.10
2018-09-25T19:54:28.090Z,13.00
2018-09-25T19:57:02.235Z,13.10
2018-09-25T19:59:36.030Z,13.20
2018-09-25T20:02:09.713Z,13.10
2018-09-25T20:04:43.688Z,12.90
2018-09-25T20:13:47.970Z,12.80
2018-09-25T20:16:26.963Z,12.50
2018-09-25T20:19:00.787Z,12.50
2018-09-25T20:21:36.098Z,12.40
2018-09-25T20:24:17.525Z,12.30
2018-09-25T20:26:51.389Z,12.40
2018-09-25T20:29:25.288Z,12.40
2018-09-25T20:31:59.410Z,12.40
2018-09-25T20:34:33.273Z,12.30
2018-09-25T20:37:06.943Z,12.40
2018-09-25T20:39:40.657Z,12.30
2018-09-25T20:42:14.770Z,12.30
2018-09-25T20:44:49.560Z,12.20
2018-09-25T20:47:35.591Z,12.20
2018-09-25T20:50:18.288Z,12.10
2018-09-25T20:52:53.003Z,12.00
2018-09-25T20:55:26.916Z,11.90
2018-09-25T20:58:01.769Z,11.90
2018-09-25T21:00:54.517Z,11.80
2018-09-25T21:03:28.632Z,11.90
2018-09-25T21:06:02.511Z,11.90
2018-09-25T21:08:36.571Z,12.00
2018-09-25T21:11:10.265Z,12.10
2018-09-25T21:13:43.883Z,12.00
2018-09-25T21:16:17.692Z,12.00
2018-09-25T21:18:51.544Z,12.00
2018-09-25T21:21:32.419Z,12.00
2018-09-25T21:24:09.419Z,12.00
2018-09-25T21:26:43.202Z,11.90
2018-09-25T21:29:16.865Z,11.90
2018-09-25T21:31:50.624Z,12.00
2018-09-25T21:34:24.389Z,12.00
2018-09-25T21:36:58.811Z,12.00
2018-09-25T21:39:33.353Z,12.00
2018-09-25T21:42:06.964Z,11.90
2018-09-25T21:44:42.205Z,11.90
2018-09-25T21:47:16.143Z,11.70
2018-09-25T21:49:50.001Z,11.50
2018-09-25T21:52:23.702Z,11.40
2018-09-25T21:54:57.642Z,11.30
2018-09-25T21:57:32.034Z,11.30
2018-09-25T22:00:08.947Z,11.40
2018-09-25T22:05:49.598Z,11.50
2018-09-25T22:08:23.424Z,11.50
2018-09-25T22:10:57.308Z,11.40
2018-09-25T22:13:31.139Z,11.30
2018-09-25T22:16:05.426Z,11.30
2018-09-25T22:18:39.243Z,11.20
2018-09-25T22:27:08.713Z,10.70
2018-09-25T22:29:42.672Z,10.70
2018-09-25T22:32:17.502Z,10.40
2018-09-25T22:34:51.961Z,10.40
2018-09-25T22:40:42.188Z,10.30
2018-09-25T22:43:16.744Z,10.30
2018-09-25T22:45:50.860Z,10.00
2018-09-25T22:48:24.870Z,10.00
2018-09-25T22:50:58.757Z,10.10
2018-09-25T22:53:32.560Z,10.10
2018-09-25T22:56:06.363Z,9.90
2018-09-25T22:58:40.088Z,9.90
2018-09-25T23:01:17.912Z,9.90
2018-09-25T23:03:51.757Z,9.90
2018-09-25T23:06:28.833Z,9.80
2018-09-25T23:09:03.733Z,9.70
2018-09-25T23:11:38.390Z,9.70
2018-09-25T23:17:36.481Z,9.70
2018-09-25T23:20:11.048Z,9.80
2018-09-25T23:22:45.312Z,9.70
2018-09-25T23:25:29.906Z,9.80
2018-09-25T23:28:12.175Z,9.80
2018-09-25T23:33:53.978Z,9.70
2018-09-25T23:36:27.802Z,9.70
2018-09-25T23:39:13.333Z,9.70
2018-09-25T23:41:49.344Z,9.80
2018-09-25T23:44:55.620Z,9.70
2018-09-25T23:47:33.458Z,9.50
2018-09-25T23:50:09.316Z,9.20
2018-09-25T23:52:42.073Z,9.20
2018-09-25T23:56:13.552Z,9.20
2018-09-25T23:58:49.695Z,9.10
